Time;durP1;ratioP1;P1;durP2;ratioP2;P2;SDS_P1;SDS_P2;PMS_P1;PMS_P2;Temp;Humidity;BMP_temperature;BMP_pressure;BME280_temperature;BME280_humidity;BME280_pressure;Samples;Min_cycle;Max_cycle;Signal;HPM_P1;HPM_P2
2022/12/18 00:01:40;;;;;;;9.00;7.60;;;1.10;87.40;;;;;;5032508;28;20181;-64
2022/12/18 00:04:13;;;;;;;11.20;8.47;;;1.10;86.10;;;;;;5034713;28;20186;-64
2022/12/18 00:06:39;;;;;;;6.47;5.88;;;1.00;84.60;;;;;;5034816;28;20614;-65
2022/12/18 00:09:05;;;;;;;11.40;8.50;;;0.90;84.00;;;;;;5034517;28;20333;-64
2022/12/18 00:11:31;;;;;;;8.60;6.63;;;0.90;85.00;;;;;;5033011;28;20179;-64
2022/12/18 00:13:59;;;;;;;10.13;6.32;;;0.90;85.40;;;;;;5034495;28;20179;-65
2022/12/18 00:16:27;;;;;;;6.25;5.65;;;0.90;85.90;;;;;;5034117;28;20296;-65
2022/12/18 00:18:58;;;;;;;7.00;5.38;;;0.90;86.00;;;;;;5033676;28;20716;-64
2022/12/18 00:21:24;;;;;;;7.43;6.60;;;0.90;85.70;;;;;;5035451;28;20482;-64
2022/12/18 00:23:50;;;;;;;7.00;6.03;;;0.80;86.00;;;;;;5033618;28;20257;-64
2022/12/18 00:26:22;;;;;;;7.90;6.00;;;0.80;86.80;;;;;;5032165;28;20491;-64
2022/12/18 00:28:47;;;;;;;7.90;6.63;;;0.80;86.00;;;;;;5032616;28;20718;-64
2022/12/18 00:31:16;;;;;;;9.90;7.70;;;0.70;85.10;;;;;;5034763;28;20264;-64
2022/12/18 00:33:42;;;;;;;9.68;6.80;;;0.70;85.20;;;;;;5033219;28;20269;-64
2022/12/18 00:36:11;;;;;;;8.67;7.30;;;0.70;85.50;;;;;;5033912;28;20225;-64
2022/12/18 00:38:38;;;;;;;8.55;6.70;;;0.60;85.80;;;;;;5034417;28;20210;-68
2022/12/18 00:41:05;;;;;;;8.48;6.35;;;0.60;85.90;;;;;;5033773;28;20182;-64
2022/12/18 00:43:30;;;;;;;8.68;7.07;;;0.60;85.10;;;;;;5026816;28;20231;-64
2022/12/18 00:45:56;;;;;;;8.27;6.47;;;0.50;85.20;;;;;;5026523;28;20182;-64
2022/12/18 00:48:22;;;;;;;6.87;6.00;;;0.50;86.40;;;;;;5033589;28;20269;-65
2022/12/18 00:50:49;;;;;;;6.57;5.85;;;0.50;87.40;;;;;;5032959;28;20202;-65
2022/12/18 00:53:15;;;;;;;6.88;5.72;;;0.50;88.30;;;;;;5031765;28;20549;-64
2022/12/18 00:55:41;;;;;;;10.00;6.55;;;0.50;88.80;;;;;;5031944;28;20186;-64
2022/12/18 00:58:08;;;;;;;6.60;5.77;;;0.50;89.10;;;;;;5032688;28;20210;-64
2022/12/18 01:00:35;;;;;;;7.90;5.90;;;0.50;89.00;;;;;;5032328;28;20800;-65
2022/12/18 01:03:00;;;;;;;5.07;4.68;;;0.50;88.20;;;;;;5033293;28;20260;-64
2022/12/18 01:05:27;;;;;;;5.77;5.10;;;0.50;88.60;;;;;;5033032;28;20218;-64
2022/12/18 01:07:52;;;;;;;7.25;4.88;;;0.50;89.20;;;;;;5032501;28;20194;-65
2022/12/18 01:10:18;;;;;;;5.10;4.60;;;0.50;89.30;;;;;;5034052;28;20178;-64
2022/12/18 01:12:44;;;;;;;5.20;4.70;;;0.60;89.10;;;;;;5031511;28;20190;-64
2022/12/18 01:15:12;;;;;;;9.00;5.63;;;0.60;88.80;;;;;;5033077;28;20216;-64
2022/12/18 01:17:38;;;;;;;6.38;5.50;;;0.60;88.90;;;;;;5033152;28;20249;-65
2022/12/18 01:20:04;;;;;;;5.53;5.03;;;0.60;89.10;;;;;;5032969;28;20324;-64
2022/12/18 01:22:30;;;;;;;6.32;5.05;;;0.70;89.00;;;;;;5031365;28;20237;-64
2022/12/18 01:24:56;;;;;;;7.10;5.90;;;0.70;88.40;;;;;;5032860;28;20194;-65
2022/12/18 01:27:22;;;;;;;7.20;5.70;;;0.70;87.70;;;;;;5033479;28;20669;-65
2022/12/18 01:29:48;;;;;;;5.90;5.00;;;0.70;87.00;;;;;;5031917;28;20676;-64
2022/12/18 01:32:14;;;;;;;5.10;4.60;;;0.70;87.90;;;;;;5033039;28;20837;-64
2022/12/18 01:34:40;;;;;;;6.53;5.23;;;0.70;88.00;;;;;;5032416;28;20205;-64
2022/12/18 01:37:06;;;;;;;6.50;5.50;;;0.60;87.90;;;;;;5031938;28;20202;-64
2022/12/18 01:39:32;;;;;;;6.73;5.50;;;0.60;87.70;;;;;;5031282;28;20515;-64
2022/12/18 01:42:06;;;;;;;8.75;6.55;;;0.60;87.70;;;;;;5033030;28;20409;-64
2022/12/18 01:44:55;;;;;;;10.05;7.35;;;0.60;88.00;;;;;;5032647;28;20261;-65
2022/12/18 01:47:24;;;;;;;8.77;7.20;;;0.50;88.00;;;;;;5032324;28;20236;-64
2022/12/18 01:49:50;;;;;;;8.52;7.72;;;0.50;88.20;;;;;;5032582;28;20178;-64
2022/12/18 01:52:17;;;;;;;13.15;8.40;;;0.50;87.70;;;;;;5031705;28;20193;-64
2022/12/18 01:54:44;;;;;;;9.82;8.73;;;0.50;87.20;;;;;;5030987;28;20190;-66
2022/12/18 01:57:09;;;;;;;10.20;7.80;;;0.50;86.90;;;;;;5032171;28;20178;-65
2022/12/18 01:59:37;;;;;;;9.13;7.70;;;0.50;87.80;;;;;;5031563;28;20217;-65
2022/12/18 02:02:03;;;;;;;8.43;7.53;;;0.50;87.50;;;;;;5018445;28;20187;-64
2022/12/18 02:04:29;;;;;;;8.60;7.40;;;0.40;87.40;;;;;;5031046;28;20190;-65
2022/12/18 02:07:14;;;;;;;11.85;8.10;;;0.40;87.00;;;;;;5029559;28;20430;-64
2022/12/18 02:10:12;;;;;;;10.88;7.45;;;0.40;87.50;;;;;;5029870;28;20186;-64
2022/12/18 02:13:00;;;;;;;8.45;7.47;;;0.40;88.60;;;;;;5029226;28;20214;-64
2022/12/18 02:15:41;;;;;;;7.88;6.78;;;0.40;89.20;;;;;;5030546;28;20634;-68
2022/12/18 02:18:24;;;;;;;6.90;5.93;;;0.50;89.60;;;;;;5030281;28;20259;-67
2022/12/18 02:21:13;;;;;;;6.65;5.40;;;0.50;88.40;;;;;;5030251;28;20218;-64
2022/12/18 02:24:00;;;;;;;6.90;6.30;;;0.50;88.60;;;;;;5029641;28;20222;-64
2022/12/18 02:26:44;;;;;;;6.47;4.88;;;0.50;89.20;;;;;;5022155;28;20506;-64
2022/12/18 02:29:28;;;;;;;4.97;4.47;;;0.50;88.90;;;;;;5020132;28;20698;-64
2022/12/18 02:31:59;;;;;;;7.05;5.00;;;0.50;88.90;;;;;;5030142;28;20181;-64
2022/12/18 02:34:32;;;;;;;5.82;5.28;;;0.50;88.60;;;;;;5028403;28;20603;-64
2022/12/18 02:37:02;;;;;;;6.70;5.60;;;0.50;87.90;;;;;;5029420;28;20183;-64
2022/12/18 02:39:30;;;;;;;5.72;5.22;;;0.40;88.30;;;;;;5030733;28;20220;-64
2022/12/18 02:41:58;;;;;;;6.18;5.30;;;0.40;89.30;;;;;;5031116;28;20242;-64
2022/12/18 02:44:24;;;;;;;6.68;5.25;;;0.40;88.40;;;;;;5029271;28;20205;-64
2022/12/18 02:46:52;;;;;;;4.63;4.23;;;0.40;89.00;;;;;;5031100;28;20642;-64
2022/12/18 02:49:24;;;;;;;5.22;4.72;;;0.40;89.90;;;;;;5031019;28;20609;-65
2022/12/18 02:51:50;;;;;;;5.20;4.70;;;0.40;90.00;;;;;;5027864;28;20597;-65
2022/12/18 02:54:50;;;;;;;6.83;5.43;;;0.40;90.10;;;;;;5045723;28;20186;-65
2022/12/18 02:57:22;;;;;;;7.05;5.50;;;0.50;90.40;;;;;;5031758;28;20193;-66
2022/12/18 03:00:13;;;;;;;5.55;4.70;;;0.50;90.50;;;;;;5031779;28;20210;-64
2022/12/18 03:02:47;;;;;;;5.97;5.40;;;0.60;90.60;;;;;;5026786;28;20563;-64
2022/12/18 03:05:42;;;;;;;5.35;4.40;;;0.80;90.40;;;;;;5031510;28;20189;-64
2022/12/18 03:08:14;;;;;;;5.90;5.28;;;0.60;89.70;;;;;;5030950;28;20186;-64
2022/12/18 03:10:47;;;;;;;5.63;4.90;;;0.60;89.50;;;;;;5032380;28;20508;-64
2022/12/18 03:13:19;;;;;;;6.38;5.00;;;0.60;89.60;;;;;;5031552;28;20210;-64
2022/12/18 03:15:49;;;;;;;6.35;4.85;;;0.60;89.30;;;;;;5031389;28;20257;-64
2022/12/18 03:18:25;;;;;;;5.32;4.72;;;0.60;89.40;;;;;;5033513;28;20678;-64
2022/12/18 03:20:54;;;;;;;6.70;5.43;;;0.60;90.20;;;;;;5035324;28;20188;-64
2022/12/18 03:23:25;;;;;;;6.97;4.97;;;0.60;90.30;;;;;;5033649;28;20237;-64
2022/12/18 03:25:55;;;;;;;7.55;4.72;;;0.60;90.10;;;;;;5034555;28;20186;-65
2022/12/18 03:28:22;;;;;;;6.30;5.10;;;0.60;90.30;;;;;;5035908;28;20193;-65
2022/12/18 03:30:55;;;;;;;5.63;4.57;;;0.60;90.60;;;;;;5034416;28;20580;-65
2022/12/18 03:33:29;;;;;;;4.15;3.75;;;0.70;90.80;;;;;;5034020;28;20183;-64
2022/12/18 03:35:55;;;;;;;5.80;4.10;;;0.70;91.10;;;;;;5035069;28;20194;-64
2022/12/18 03:38:21;;;;;;;6.03;4.75;;;0.80;91.50;;;;;;5034826;28;20218;-65
2022/12/18 03:40:54;;;;;;;5.13;4.30;;;0.90;91.50;;;;;;5035001;28;20189;-64
2022/12/18 03:43:28;;;;;;;4.43;4.13;;;1.00;91.40;;;;;;5034970;28;20437;-64
2022/12/18 03:46:11;;;;;;;4.85;3.95;;;1.00;90.70;;;;;;5034241;28;20154;-65
2022/12/18 03:48:44;;;;;;;5.28;4.60;;;1.00;90.50;;;;;;5035761;28;20179;-64
2022/12/18 03:51:18;;;;;;;6.97;6.28;;;0.90;90.00;;;;;;5034192;28;20187;-64
2022/12/18 03:54:03;;;;;;;9.60;7.43;;;0.90;88.00;;;;;;5034538;28;20186;-65
2022/12/18 03:56:35;;;;;;;9.93;7.15;;;0.80;86.90;;;;;;5035521;28;20177;-64
2022/12/18 03:59:04;;;;;;;8.07;6.60;;;0.70;85.40;;;;;;5033891;28;20203;-64
2022/12/18 04:01:37;;;;;;;7.15;6.45;;;0.60;85.20;;;;;;5034587;28;20190;-64
2022/12/18 04:04:05;;;;;;;9.50;6.90;;;0.50;87.00;;;;;;5033969;28;20183;-64
2022/12/18 04:06:35;;;;;;;8.52;6.63;;;0.50;87.50;;;;;;5034938;28;20659;-64
2022/12/18 04:09:01;;;;;;;7.22;6.20;;;0.40;87.40;;;;;;5033670;28;20521;-64
2022/12/18 04:11:26;;;;;;;10.88;7.85;;;0.40;89.50;;;;;;5034444;28;20194;-64
2022/12/18 04:13:57;;;;;;;10.37;8.50;;;0.50;90.10;;;;;;5033678;28;20190;-64
2022/12/18 04:16:23;;;;;;;12.05;10.68;;;0.50;88.70;;;;;;5035155;28;20728;-64
2022/12/18 04:18:49;;;;;;;14.05;11.27;;;0.50;87.40;;;;;;5034022;28;20245;-64
2022/12/18 04:21:15;;;;;;;13.45;10.55;;;0.40;86.60;;;;;;5034065;28;20182;-64
2022/12/18 04:23:41;;;;;;;17.40;11.60;;;0.40;86.10;;;;;;5033770;28;20698;-64
2022/12/18 04:26:06;;;;;;;11.33;10.13;;;0.30;85.90;;;;;;5034065;28;20555;-64
2022/12/18 04:28:32;;;;;;;16.73;9.93;;;0.30;86.30;;;;;;5032800;28;20186;-64
2022/12/18 04:30:58;;;;;;;13.17;9.77;;;0.30;86.50;;;;;;5033106;28;20197;-64
2022/12/18 04:33:23;;;;;;;11.57;9.30;;;0.20;87.60;;;;;;5034744;28;20174;-64
2022/12/18 04:35:49;;;;;;;15.43;11.67;;;0.20;88.40;;;;;;5033657;28;20661;-64
2022/12/18 04:38:15;;;;;;;16.80;10.83;;;-0.30;88.00;;;;;;5033176;28;20218;-64
2022/12/18 04:40:41;;;;;;;16.73;10.93;;;0.10;87.30;;;;;;5034587;28;20265;-64
2022/12/18 04:43:07;;;;;;;14.50;10.70;;;0.00;86.30;;;;;;5032895;28;20214;-64
2022/12/18 04:45:32;;;;;;;12.77;10.83;;;0.00;86.10;;;;;;5033674;28;20433;-64
2022/12/18 04:48:00;;;;;;;12.00;9.97;;;-0.10;85.60;;;;;;5032199;28;20188;-65
2022/12/18 04:50:26;;;;;;;15.18;11.10;;;-0.20;84.90;;;;;;5029517;28;20983;-64
2022/12/18 04:53:00;;;;;;;15.77;10.85;;;-0.30;84.60;;;;;;5033556;28;20191;-67
2022/12/18 04:55:26;;;;;;;15.45;11.07;;;-0.40;84.80;;;;;;5031004;28;20189;-65
2022/12/18 04:57:53;;;;;;;18.65;12.38;;;-0.40;84.90;;;;;;5030970;28;20201;-68
2022/12/18 05:00:19;;;;;;;17.63;12.32;;;-0.50;85.40;;;;;;5032562;28;20217;-64
2022/12/18 05:02:45;;;;;;;19.13;13.13;;;-0.50;85.30;;;;;;5033471;28;20221;-64
2022/12/18 05:05:10;;;;;;;13.83;11.20;;;-0.50;85.70;;;;;;5032828;28;20210;-64
2022/12/18 05:07:36;;;;;;;23.80;12.03;;;-0.60;85.90;;;;;;5032842;28;20875;-64
2022/12/18 05:10:02;;;;;;;14.07;11.20;;;-0.60;86.00;;;;;;5031683;28;20186;-64
2022/12/18 05:12:28;;;;;;;16.08;11.60;;;-0.50;86.50;;;;;;5032158;28;20329;-64
2022/12/18 05:14:54;;;;;;;14.87;11.30;;;-0.60;86.70;;;;;;5033510;28;20258;-65
2022/12/18 05:17:19;;;;;;;14.60;10.77;;;-0.50;87.30;;;;;;5032289;28;20530;-64
2022/12/18 05:19:45;;;;;;;17.77;11.50;;;-0.50;87.10;;;;;;5032959;28;20507;-64
2022/12/18 05:22:11;;;;;;;13.50;9.50;;;-0.60;86.50;;;;;;5033380;28;20291;-64
2022/12/18 05:24:37;;;;;;;13.15;9.02;;;-0.60;86.10;;;;;;5032173;28;20193;-64
2022/12/18 05:27:03;;;;;;;17.13;11.50;;;-0.70;85.70;;;;;;5031635;28;20174;-64
2022/12/18 05:29:29;;;;;;;17.87;10.40;;;-0.70;85.60;;;;;;5033400;28;20166;-64
2022/12/18 05:31:55;;;;;;;16.37;11.83;;;-0.70;86.10;;;;;;5031493;28;20428;-67
2022/12/18 05:34:21;;;;;;;9.80;8.77;;;-0.80;86.70;;;;;;5032845;28;20206;-64
2022/12/18 05:36:46;;;;;;;15.00;9.90;;;-0.70;87.60;;;;;;5033617;28;20182;-64
2022/12/18 05:39:12;;;;;;;12.83;10.47;;;-0.70;88.50;;;;;;5031517;28;20297;-64
2022/12/18 05:41:38;;;;;;;12.00;9.13;;;-0.70;89.20;;;;;;5032359;28;20182;-64
2022/12/18 05:44:03;;;;;;;12.60;9.40;;;-0.80;88.10;;;;;;5030824;28;20439;-64
2022/12/18 05:46:29;;;;;;;13.77;10.37;;;-0.80;87.40;;;;;;5032286;28;20189;-64
2022/12/18 05:48:58;;;;;;;15.53;9.30;;;-0.80;87.50;;;;;;5032325;28;20185;-68
2022/12/18 05:51:24;;;;;;;15.27;10.52;;;-0.90;87.40;;;;;;5033497;28;20240;-64
2022/12/18 05:53:49;;;;;;;14.23;10.50;;;-0.90;86.80;;;;;;5032486;28;20187;-64
2022/12/18 05:56:18;;;;;;;14.00;9.83;;;-1.00;86.80;;;;;;5030588;28;20470;-64
2022/12/18 05:58:44;;;;;;;14.13;10.10;;;-1.00;86.80;;;;;;5031853;28;20209;-64
2022/12/18 06:01:19;;;;;;;13.50;9.93;;;-1.00;86.30;;;;;;5029169;28;20182;-64
2022/12/18 06:03:44;;;;;;;15.55;11.35;;;-1.10;86.00;;;;;;5032410;28;20435;-63
2022/12/18 06:06:16;;;;;;;16.53;11.60;;;-1.10;86.30;;;;;;5031154;28;20174;-63
2022/12/18 06:08:41;;;;;;;17.88;10.93;;;-1.10;85.50;;;;;;5031715;28;20433;-64
2022/12/18 06:11:07;;;;;;;16.20;10.80;;;-1.20;85.50;;;;;;5032568;28;20189;-63
2022/12/18 06:13:33;;;;;;;18.90;12.10;;;-1.20;85.70;;;;;;5032224;28;20256;-63
2022/12/18 06:16:02;;;;;;;12.23;10.30;;;-1.20;86.00;;;;;;5031557;28;20181;-64
2022/12/18 06:18:28;;;;;;;15.98;11.05;;;-1.20;87.20;;;;;;5030463;28;20210;-64
2022/12/18 06:20:58;;;;;;;15.90;10.67;;;-1.20;88.00;;;;;;5031590;28;20174;-63
2022/12/18 06:23:24;;;;;;;14.57;9.40;;;-1.10;88.70;;;;;;5015388;28;20265;-64
2022/12/18 06:25:50;;;;;;;18.90;12.97;;;-1.10;89.20;;;;;;5015892;28;20186;-63
2022/12/18 06:28:16;;;;;;;11.93;9.10;;;-1.10;89.80;;;;;;5028442;28;20913;-63
2022/12/18 06:30:46;;;;;;;12.27;8.30;;;-1.10;89.60;;;;;;5030257;28;20178;-64
2022/12/18 06:33:11;;;;;;;8.98;7.25;;;-1.10;90.20;;;;;;5030666;28;20189;-64
2022/12/18 06:35:37;;;;;;;9.80;7.63;;;-1.10;90.50;;;;;;5029139;28;20622;-63
2022/12/18 06:38:03;;;;;;;8.43;6.47;;;-1.10;90.60;;;;;;5028906;28;20218;-67
2022/12/18 06:40:29;;;;;;;9.88;7.15;;;-1.10;90.80;;;;;;5030356;28;20194;-63
2022/12/18 06:42:55;;;;;;;12.43;6.57;;;-1.00;90.90;;;;;;5029451;28;20179;-63
2022/12/18 06:45:21;;;;;;;10.10;7.60;;;-1.00;91.10;;;;;;5029144;28;20183;-64
2022/12/18 06:47:47;;;;;;;10.53;7.60;;;-1.00;91.40;;;;;;5030640;28;20514;-64
2022/12/18 06:50:13;;;;;;;8.90;7.10;;;-0.90;91.50;;;;;;5030663;28;20213;-63
2022/12/18 06:52:40;;;;;;;10.05;7.18;;;-0.90;91.50;;;;;;5032235;28;20661;-63
2022/12/18 06:55:07;;;;;;;10.13;6.35;;;-0.80;91.20;;;;;;5032892;28;20194;-65
2022/12/18 06:57:33;;;;;;;6.72;5.93;;;-0.70;90.80;;;;;;5033759;28;20194;-64
2022/12/18 06:59:59;;;;;;;9.05;6.35;;;-0.70;90.60;;;;;;5033995;28;20249;-69
2022/12/18 07:02:25;;;;;;;9.13;7.13;;;-0.70;90.40;;;;;;5035560;28;20619;-65
2022/12/18 07:04:51;;;;;;;10.40;8.80;;;-0.80;90.10;;;;;;5034481;28;20215;-64
2022/12/18 07:07:16;;;;;;;10.87;7.80;;;-0.80;90.00;;;;;;5033765;28;20178;-64
2022/12/18 07:09:42;;;;;;;11.10;7.67;;;-0.90;90.00;;;;;;5036104;28;20182;-64
2022/12/18 07:12:08;;;;;;;10.63;8.87;;;-0.90;88.80;;;;;;5031690;28;20185;-64
2022/12/18 07:14:34;;;;;;;18.20;9.10;;;-0.90;89.00;;;;;;5033173;28;20276;-67
2022/12/18 07:16:59;;;;;;;10.00;7.43;;;-0.90;89.70;;;;;;5035045;28;20483;-64
2022/12/18 07:19:25;;;;;;;13.30;9.32;;;-0.90;89.50;;;;;;5031016;28;20661;-63
2022/12/18 07:21:51;;;;;;;10.50;7.90;;;-0.90;89.70;;;;;;5032809;28;20209;-63
2022/12/18 07:24:17;;;;;;;12.83;8.40;;;-1.00;89.90;;;;;;5035449;28;20630;-63
2022/12/18 07:26:45;;;;;;;10.50;8.77;;;-0.90;90.00;;;;;;5033210;28;20433;-64
2022/12/18 07:29:12;;;;;;;12.98;9.02;;;-1.00;90.00;;;;;;5033598;28;20646;-63
2022/12/18 07:31:37;;;;;;;18.27;9.13;;;-1.00;90.50;;;;;;5034026;28;20189;-63
2022/12/18 07:34:03;;;;;;;11.03;8.87;;;-1.00;90.60;;;;;;5034818;28;20178;-64
2022/12/18 07:36:29;;;;;;;11.23;9.03;;;-1.00;90.50;;;;;;5034149;28;20178;-63
2022/12/18 07:38:54;;;;;;;13.47;9.40;;;-1.00;90.80;;;;;;5033065;28;20218;-63
2022/12/18 07:41:21;;;;;;;13.93;9.20;;;-1.00;91.00;;;;;;5035231;28;20266;-63
2022/12/18 07:43:47;;;;;;;12.75;8.57;;;-0.90;91.20;;;;;;5033637;28;20577;-63
2022/12/18 07:46:14;;;;;;;13.30;9.10;;;-0.90;91.00;;;;;;5032305;28;20248;-63
2022/12/18 07:48:40;;;;;;;10.60;7.57;;;-0.90;91.10;;;;;;5034788;28;20192;-63
2022/12/18 07:51:07;;;;;;;10.13;7.97;;;-0.90;91.40;;;;;;5032340;28;20608;-64
2022/12/18 07:53:33;;;;;;;9.32;7.65;;;-0.90;91.70;;;;;;5033141;28;20225;-64
2022/12/18 07:56:01;;;;;;;8.65;7.35;;;-0.80;91.90;;;;;;5034049;28;20289;-63
2022/12/18 07:58:28;;;;;;;10.77;6.85;;;-0.80;92.20;;;;;;5032112;28;20301;-63
2022/12/18 08:00:54;;;;;;;7.25;6.47;;;-0.70;92.90;;;;;;5035338;28;20171;-63
2022/12/18 08:03:20;;;;;;;10.67;6.40;;;-0.70;92.60;;;;;;5033522;28;20182;-63
2022/12/18 08:05:45;;;;;;;9.10;6.97;;;-0.70;93.00;;;;;;5033392;28;20437;-63
2022/12/18 08:08:11;;;;;;;10.70;7.00;;;-0.50;93.30;;;;;;5030239;28;20426;-63
2022/12/18 08:10:37;;;;;;;8.10;6.37;;;-0.50;93.40;;;;;;5035166;28;20173;-63
2022/12/18 08:13:04;;;;;;;9.77;6.53;;;-0.30;94.30;;;;;;5032958;28;20189;-68
2022/12/18 08:15:29;;;;;;;9.32;6.38;;;-0.40;94.60;;;;;;5034508;28;20225;-63
2022/12/18 08:17:58;;;;;;;8.30;6.20;;;-0.30;94.90;;;;;;5035159;28;20202;-63
2022/12/18 08:20:24;;;;;;;9.07;7.35;;;-0.30;94.60;;;;;;5033278;28;20381;-63
2022/12/18 08:22:49;;;;;;;9.03;6.30;;;-0.10;94.60;;;;;;5032717;28;20229;-64
2022/12/18 08:25:15;;;;;;;8.00;6.20;;;0.00;94.20;;;;;;5037683;28;20548;-65
2022/12/18 08:27:41;;;;;;;7.00;6.30;;;0.10;94.10;;;;;;5033926;28;20197;-68
2022/12/18 08:30:07;;;;;;;8.53;6.40;;;0.20;94.00;;;;;;5031282;28;20437;-70
2022/12/18 08:32:33;;;;;;;7.57;6.50;;;0.30;93.60;;;;;;5026593;28;20281;-66
2022/12/18 08:34:59;;;;;;;7.97;6.57;;;0.40;93.40;;;;;;5029713;28;20634;-65
2022/12/18 08:37:25;;;;;;;12.93;9.33;;;0.50;93.30;;;;;;5024802;28;20183;-66
2022/12/18 08:39:53;;;;;;;13.20;9.60;;;0.70;92.60;;;;;;5026353;28;20214;-65
2022/12/18 08:45:04;;;;;;;10.93;8.27;;;1.00;92.00;;;;;;5026769;28;20172;-66
2022/12/18 08:47:29;;;;;;;13.48;10.52;;;1.10;91.50;;;;;;5027781;28;20742;-66
2022/12/18 08:49:55;;;;;;;14.13;10.80;;;1.20;91.60;;;;;;5026238;28;20207;-66
2022/12/18 08:52:21;;;;;;;9.60;8.60;;;1.30;91.40;;;;;;5024349;28;20190;-65
2022/12/18 08:54:46;;;;;;;9.33;7.93;;;1.50;91.30;;;;;;5022633;28;20260;-66
2022/12/18 08:57:12;;;;;;;8.10;7.30;;;1.80;91.50;;;;;;5029195;28;20231;-66
2022/12/18 08:59:38;;;;;;;9.47;8.07;;;2.30;91.50;;;;;;5028973;28;20576;-66
2022/12/18 09:02:03;;;;;;;9.23;7.57;;;2.80;89.60;;;;;;5033794;28;20183;-66
2022/12/18 09:04:29;;;;;;;8.60;7.80;;;3.20;87.50;;;;;;5031226;28;20626;-65
2022/12/18 09:06:55;;;;;;;8.30;7.50;;;4.00;83.30;;;;;;5033805;28;20175;-65
2022/12/18 09:09:20;;;;;;;12.67;7.60;;;4.90;78.60;;;;;;5030808;28;20190;-65
2022/12/18 09:11:46;;;;;;;7.40;5.90;;;6.10;75.10;;;;;;5032622;28;20630;-65
2022/12/18 09:14:12;;;;;;;7.63;5.27;;;7.20;66.90;;;;;;5032502;28;20500;-66
2022/12/18 09:16:38;;;;;;;4.40;3.87;;;8.20;59.20;;;;;;5031952;28;20490;-65
2022/12/18 09:19:05;;;;;;;3.67;3.33;;;8.60;54.80;;;;;;5032835;28;20667;-66
2022/12/18 09:21:33;;;;;;;4.73;4.33;;;8.80;53.20;;;;;;5032867;28;20232;-66
2022/12/18 09:24:00;;;;;;;3.67;3.30;;;9.10;50.30;;;;;;5031182;28;20977;-66
2022/12/18 09:26:26;;;;;;;3.73;3.40;;;9.00;49.50;;;;;;5038412;28;20533;-65
2022/12/18 09:28:52;;;;;;;3.77;3.47;;;9.00;48.60;;;;;;5033030;28;20816;-66
2022/12/18 09:31:22;;;;;;;5.23;3.70;;;9.20;49.30;;;;;;5032084;28;20462;-65
2022/12/18 09:33:47;;;;;;;4.23;3.90;;;9.40;49.10;;;;;;5032742;28;20508;-65
2022/12/18 09:36:15;;;;;;;4.47;4.17;;;9.10;47.60;;;;;;5032491;28;20499;-66
2022/12/18 09:38:41;;;;;;;5.33;4.83;;;9.10;48.70;;;;;;5032312;28;20234;-64
2022/12/18 09:41:44;;;;;;;7.67;6.40;;;9.30;49.90;;;;;;5032125;28;20429;-64
2022/12/18 09:44:15;;;;;;;8.23;7.07;;;9.30;50.90;;;;;;5021754;28;20183;-69
2022/12/18 09:47:14;;;;;;;5.90;5.30;;;9.30;51.40;;;;;;5013071;28;20529;-68
2022/12/18 09:49:43;;;;;;;7.40;6.80;;;9.20;51.60;;;;;;5019473;28;20522;-73
2022/12/18 09:52:12;;;;;;;7.43;6.83;;;9.70;52.70;;;;;;5028622;28;20515;-69
2022/12/18 09:54:43;;;;;;;176.97;103.97;;;10.20;52.70;;;;;;5030176;28;20927;-66
2022/12/18 09:57:19;;;;;;;224.87;109.70;;;10.70;51.40;;;;;;5031049;28;20434;-66
2022/12/18 10:00:18;;;;;;;17.23;12.50;;;11.00;50.70;;;;;;5032708;28;20491;-63
2022/12/18 10:02:52;;;;;;;11.10;8.40;;;11.10;50.90;;;;;;5021666;28;20448;-63
2022/12/18 10:05:33;;;;;;;8.80;7.90;;;11.30;48.50;;;;;;5029163;28;20440;-64
2022/12/18 10:08:10;;;;;;;9.83;8.40;;;11.20;49.50;;;;;;5025868;28;20524;-64
2022/12/18 10:11:00;;;;;;;7.83;7.03;;;11.00;50.10;;;;;;5023434;28;20450;-65
2022/12/18 10:13:45;;;;;;;8.97;6.83;;;10.70;49.00;;;;;;5022675;28;20410;-67
2022/12/18 10:16:17;;;;;;;8.60;7.87;;;10.70;53.40;;;;;;5026084;28;20423;-67
2022/12/18 10:19:04;;;;;;;7.33;6.70;;;11.00;56.90;;;;;;5026199;28;20469;-66
2022/12/18 10:21:36;;;;;;;7.90;6.20;;;11.60;55.20;;;;;;5025061;28;20461;-66
2022/12/18 10:24:33;;;;;;;7.00;6.40;;;12.00;55.00;;;;;;5023824;28;20979;-66
2022/12/18 10:27:26;;;;;;;8.00;7.30;;;12.50;51.60;;;;;;5025399;28;20514;-66
2022/12/18 10:29:52;;;;;;;7.13;6.30;;;12.80;51.00;;;;;;5023612;28;20436;-67
2022/12/18 10:32:24;;;;;;;7.57;6.57;;;13.10;50.20;;;;;;5022798;28;20868;-66
2022/12/18 10:34:54;;;;;;;6.20;5.60;;;13.30;50.90;;;;;;5026455;28;20411;-66
2022/12/18 10:37:23;;;;;;;5.80;5.30;;;13.50;54.10;;;;;;5022525;28;20486;-67
2022/12/18 10:40:11;;;;;;;5.10;4.60;;;13.60;50.20;;;;;;5024899;28;20974;-67
2022/12/18 10:42:37;;;;;;;5.73;5.17;;;13.70;48.80;;;;;;5022232;28;20754;-67
2022/12/18 10:45:15;;;;;;;6.33;5.73;;;13.80;51.20;;;;;;5024093;28;20421;-66
2022/12/18 10:47:46;;;;;;;5.03;4.63;;;13.80;51.10;;;;;;5026907;28;20436;-66
2022/12/18 10:50:31;;;;;;;5.00;4.60;;;13.90;47.50;;;;;;5025153;28;20439;-67
2022/12/18 10:53:00;;;;;;;5.77;5.17;;;13.50;44.90;;;;;;5025821;28;20764;-66
2022/12/18 10:55:34;;;;;;;4.93;4.53;;;13.70;46.20;;;;;;5020402;28;20751;-66
2022/12/18 10:58:29;;;;;;;5.50;4.70;;;13.80;48.40;;;;;;5025554;28;20503;-66
2022/12/18 11:01:06;;;;;;;4.30;3.90;;;13.90;54.20;;;;;;5022528;28;20520;-67
2022/12/18 11:03:47;;;;;;;4.00;3.70;;;14.10;50.00;;;;;;5021113;28;20803;-67
2022/12/18 11:06:18;;;;;;;4.90;4.50;;;14.20;48.80;;;;;;5034065;28;20507;-66
2022/12/18 11:08:59;;;;;;;5.63;5.10;;;14.40;46.30;;;;;;5024776;28;20466;-66
2022/12/18 11:11:25;;;;;;;5.83;5.33;;;14.50;47.00;;;;;;5019941;28;20929;-67
2022/12/18 11:14:05;;;;;;;6.07;5.53;;;14.70;46.80;;;;;;5023063;28;20416;-67
2022/12/18 11:16:43;;;;;;;5.37;4.83;;;14.80;46.70;;;;;;5024443;28;20523;-67
2022/12/18 11:19:25;;;;;;;5.30;4.90;;;15.00;47.00;;;;;;5025174;28;20535;-66
2022/12/18 11:21:51;;;;;;;5.00;4.60;;;15.10;43.40;;;;;;5020240;28;20517;-67
2022/12/18 11:24:30;;;;;;;4.50;4.10;;;15.20;44.10;;;;;;5023127;28;20407;-67
2022/12/18 11:27:02;;;;;;;4.90;4.57;;;15.20;44.30;;;;;;5025005;28;20421;-67
2022/12/18 11:29:36;;;;;;;5.30;4.90;;;15.20;46.00;;;;;;5021654;28;20524;-67
2022/12/18 11:32:20;;;;;;;10.47;8.90;;;15.20;46.50;;;;;;5022618;28;20451;-66
2022/12/18 11:34:50;;;;;;;7.37;6.73;;;15.20;46.80;;;;;;5022505;28;20476;-67
2022/12/18 11:37:19;;;;;;;6.33;5.83;;;15.20;47.90;;;;;;5023610;28;20436;-70
2022/12/18 11:40:09;;;;;;;7.83;7.13;;;15.20;48.20;;;;;;5023928;28;20935;-66
2022/12/18 11:42:44;;;;;;;9.00;7.33;;;15.20;47.20;;;;;;5029930;28;20457;-67
2022/12/18 11:45:13;;;;;;;8.67;7.03;;;15.20;46.90;;;;;;5025869;28;20416;-69
2022/12/18 11:47:57;;;;;;;8.67;7.87;;;15.20;47.50;;;;;;5024322;28;20419;-66
2022/12/18 11:50:47;;;;;;;9.07;7.67;;;15.20;47.20;;;;;;5024485;28;20776;-70
2022/12/18 11:53:13;;;;;;;7.40;6.70;;;15.20;50.00;;;;;;5028590;28;20777;-83
2022/12/18 11:55:59;;;;;;;6.33;5.80;;;15.20;52.30;;;;;;5022486;28;20401;-70
2022/12/18 11:59:09;;;;;;;6.40;5.90;;;14.90;44.90;;;;;;5027013;28;20469;-73
2022/12/18 12:01:41;;;;;;;6.40;5.80;;;14.10;41.90;;;;;;5017658;28;20441;-70
2022/12/18 12:04:30;;;;;;;7.80;5.90;;;13.30;41.30;;;;;;5029094;28;20425;-70
2022/12/18 12:07:23;;;;;;;8.33;6.30;;;12.60;42.10;;;;;;5026378;28;21007;-70
2022/12/18 12:10:03;;;;;;;9.17;5.73;;;12.00;43.10;;;;;;5029186;28;20799;-74
2022/12/18 12:12:55;;;;;;;8.70;6.30;;;11.30;44.00;;;;;;5024209;28;20435;-74
2022/12/18 12:15:27;;;;;;;12.03;6.47;;;10.80;47.00;;;;;;5026694;28;20431;-70
2022/12/18 12:17:59;;;;;;;8.90;5.90;;;10.40;46.70;;;;;;5027649;28;20439;-70
2022/12/18 12:20:37;;;;;;;9.67;5.27;;;9.90;48.90;;;;;;5030012;28;20441;-71
2022/12/18 12:23:30;;;;;;;7.70;6.23;;;9.60;49.70;;;;;;5027428;28;20508;-74
2022/12/18 12:26:14;;;;;;;6.20;5.60;;;9.30;48.30;;;;;;5025916;28;20854;-71
2022/12/18 12:29:19;;;;;;;5.67;4.77;;;9.10;49.80;;;;;;5027619;28;20413;-71
2022/12/18 12:32:12;;;;;;;5.97;4.97;;;8.70;45.50;;;;;;5024418;28;20484;-71
2022/12/18 12:35:02;;;;;;;7.30;5.10;;;8.50;46.10;;;;;;5026412;28;20436;-69
2022/12/18 12:37:34;;;;;;;5.67;5.20;;;8.40;47.80;;;;;;5025423;28;20441;-70
2022/12/18 12:40:01;;;;;;;5.40;4.90;;;8.30;48.20;;;;;;5026688;28;20502;-71
2022/12/18 12:43:14;;;;;;;5.43;4.93;;;8.30;48.50;;;;;;5024709;28;20441;-73
2022/12/18 12:45:48;;;;;;;7.13;5.60;;;8.10;46.70;;;;;;5028363;28;20450;-71
2022/12/18 12:48:20;;;;;;;5.83;5.00;;;8.00;46.50;;;;;;5041644;28;20442;-69
2022/12/18 12:50:47;;;;;;;6.40;5.43;;;7.90;45.40;;;;;;5023318;28;20474;-72
2022/12/18 12:53:23;;;;;;;4.63;4.23;;;7.90;45.40;;;;;;5023038;28;20416;-69
2022/12/18 12:55:49;;;;;;;5.17;4.77;;;7.80;45.30;;;;;;5027443;28;20430;-71
2022/12/18 12:58:20;;;;;;;5.03;4.60;;;7.70;45.10;;;;;;5027710;28;20465;-69
2022/12/18 13:01:33;;;;;;;5.87;4.70;;;7.70;45.00;;;;;;5023944;28;20459;-76
2022/12/18 13:04:18;;;;;;;5.30;4.80;;;7.80;46.20;;;;;;5021204;28;20424;-72
2022/12/18 13:06:53;;;;;;;6.63;4.50;;;7.80;48.10;;;;;;5027826;28;20414;-70
2022/12/18 13:09:18;;;;;;;7.77;6.30;;;7.70;48.50;;;;;;5029462;28;20439;-72
2022/12/18 13:14:37;;;;;;;369.43;168.17;;;7.70;48.20;;;;;;5026462;28;20211;-70